Seville, Ohio
Current Conditions -  °F | °C
As of 8:56 PM on Monday 22 Dec 2014 (Local Time) from KBJJ Reporting Station
Overcast Overcast  
Wind Chill: 32°   Ceiling: 8000
Heat Index: 37°   Visibility: 7mi
Dew Point: 31°   Wind: 7mph
Humidity: 79%   Direction: 110°ESE
Pressure: 29.9"   Gusts: NA
Location:  41.01°N, 81.86°W
Report Text: KBJJ 230156Z AUTO 11006KT 7SM BKN080 OVC100 03/M01 A2990 RMK AO2 SLP136 T00281006 TSNO
Loading
Personal Weather Stations






























Interactive Weather Map New forecast layout! Learn more

10-Day Weather Forecast

Advertisements
Track Severe Weather on mobile